createdAt,value
2018-02-10T00:01:23.629Z,17.50
2018-02-10T00:03:53.032Z,18.77
2018-02-10T00:06:22.389Z,20.02
2018-02-10T00:08:51.745Z,19.10
2018-02-10T00:11:20.991Z,20.10
2018-02-10T00:13:51.728Z,21.15
2018-02-10T00:16:21.694Z,20.08
2018-02-10T00:18:51.091Z,20.33
2018-02-10T00:21:20.855Z,22.58
2018-02-10T00:23:49.966Z,22.00
2018-02-10T00:26:19.966Z,21.37
2018-02-10T00:28:49.746Z,21.17
2018-02-10T00:31:18.974Z,22.33
2018-02-10T00:33:48.801Z,24.40
2018-02-10T00:36:18.693Z,22.60
2018-02-10T00:38:48.141Z,24.00
2018-02-10T00:41:17.215Z,21.67
2018-02-10T00:43:47.285Z,21.87
2018-02-10T00:46:17.357Z,22.33
2018-02-10T00:48:46.859Z,23.00
2018-02-10T00:51:16.949Z,20.48
2018-02-10T00:53:51.855Z,19.20
2018-02-10T00:56:20.940Z,18.33
2018-02-10T00:58:51.024Z,18.35
2018-02-10T01:01:20.222Z,17.92
2018-02-10T01:03:50.952Z,19.87
2018-02-10T01:06:20.919Z,19.20
2018-02-10T01:08:53.600Z,21.15
2018-02-10T01:11:23.835Z,18.30
2018-02-10T01:13:54.118Z,23.42
2018-02-10T01:16:26.475Z,21.17
2018-02-10T01:18:57.324Z,21.15
2018-02-10T01:21:29.308Z,19.40
2018-02-10T01:23:58.269Z,20.42
2018-02-10T01:26:27.369Z,22.67
2018-02-10T01:28:57.320Z,21.80
2018-02-10T01:31:26.274Z,21.55
2018-02-10T01:33:55.792Z,21.33
2018-02-10T01:36:26.842Z,20.40
2018-02-10T01:38:55.818Z,22.27
2018-02-10T01:41:24.949Z,19.93
2018-02-10T01:43:56.571Z,19.27
2018-02-10T01:46:25.493Z,20.97
2018-02-10T01:48:55.067Z,19.98
2018-02-10T01:51:25.741Z,20.35
2018-02-10T01:53:54.795Z,22.65
2018-02-10T01:56:24.016Z,22.10
2018-02-10T01:58:54.525Z,23.20
2018-02-10T02:01:23.457Z,24.40
2018-02-10T02:03:53.453Z,22.90
2018-02-10T02:06:27.442Z,18.63
2018-02-10T02:08:57.551Z,18.48
2018-02-10T02:11:27.992Z,18.58
2018-02-10T02:13:57.087Z,17.77
2018-02-10T02:16:26.294Z,17.50
2018-02-10T02:18:55.495Z,17.37
2018-02-10T02:21:25.595Z,16.17
2018-02-10T02:23:54.742Z,18.55
2018-02-10T02:26:23.694Z,18.52
2018-02-10T02:28:53.415Z,20.27
2018-02-10T02:31:23.394Z,20.12
2018-02-10T02:33:52.621Z,19.95
2018-02-10T02:36:22.685Z,19.50
2018-02-10T02:38:51.744Z,21.10
2018-02-10T02:41:20.848Z,22.30
2018-02-10T02:43:50.649Z,24.37
2018-02-10T02:46:20.405Z,24.05
2018-02-10T02:48:49.452Z,24.10
2018-02-10T02:51:20.424Z,25.48
2018-02-10T02:53:50.237Z,26.37
2018-02-10T02:56:20.137Z,21.30
2018-02-10T02:58:50.134Z,21.37
2018-02-10T03:01:19.135Z,20.25
2018-02-10T03:03:48.225Z,21.23
2018-02-10T03:06:18.793Z,19.60
2018-02-10T03:08:50.512Z,22.27
2018-02-10T03:11:22.065Z,22.08
2018-02-10T03:13:51.077Z,20.13
2018-02-10T03:16:22.085Z,20.27
2018-02-10T03:18:53.761Z,22.60
2018-02-10T03:21:22.687Z,19.80
2018-02-10T03:23:51.746Z,19.90
2018-02-10T03:26:20.910Z,20.30
2018-02-10T03:28:50.141Z,19.40
2018-02-10T03:31:20.101Z,19.37
2018-02-10T03:33:50.794Z,18.40
2018-02-10T03:36:19.888Z,18.77
2018-02-10T03:38:48.989Z,19.65
2018-02-10T03:41:19.718Z,19.35
2018-02-10T03:43:49.845Z,19.35
2018-02-10T03:46:18.863Z,19.50
2018-02-10T03:48:50.744Z,18.33
2018-02-10T03:51:19.787Z,19.67
2018-02-10T03:53:49.705Z,18.42
2018-02-10T03:56:18.937Z,18.73
2018-02-10T03:58:47.998Z,20.08
2018-02-10T04:01:16.886Z,19.15
2018-02-10T04:03:46.729Z,20.37
2018-02-10T04:06:15.799Z,20.55
2018-02-10T04:08:44.859Z,18.17
2018-02-10T04:11:15.663Z,18.30
2018-02-10T04:13:44.727Z,23.42
2018-02-10T04:16:14.641Z,23.05
2018-02-10T04:18:45.511Z,19.35
2018-02-10T04:21:14.472Z,18.95
2018-02-10T04:23:43.698Z,19.75
2018-02-10T04:26:14.312Z,18.98
2018-02-10T04:28:50.411Z,19.65
2018-02-10T04:31:19.572Z,19.05
2018-02-10T04:33:50.126Z,19.60
2018-02-10T04:36:19.233Z,19.90
2018-02-10T04:38:53.413Z,18.62
2018-02-10T04:41:22.476Z,19.48
2018-02-10T04:43:51.502Z,20.37
2018-02-10T04:46:22.542Z,20.33
2018-02-10T04:48:51.741Z,19.15
2018-02-10T04:51:21.489Z,20.58
2018-02-10T04:53:50.419Z,18.70
2018-02-10T04:56:19.751Z,21.50
2018-02-10T04:58:48.774Z,21.83
2018-02-10T05:01:18.349Z,20.65
2018-02-10T05:03:48.055Z,22.73
2018-02-10T05:06:17.977Z,19.73
2018-02-10T05:08:47.066Z,20.12
2018-02-10T05:11:16.164Z,19.40
2018-02-10T05:13:46.794Z,19.73
2018-02-10T05:16:17.734Z,21.10
2018-02-10T05:18:49.530Z,21.05
2018-02-10T05:21:18.589Z,19.95
2018-02-10T05:23:47.501Z,21.75
2018-02-10T05:26:18.253Z,21.92
2018-02-10T05:28:47.452Z,21.70
2018-02-10T05:31:16.512Z,22.00
2018-02-10T05:33:45.610Z,21.57
2018-02-10T05:36:17.722Z,20.83
2018-02-10T05:38:46.799Z,19.70
2018-02-10T05:41:15.864Z,17.17
2018-02-10T05:43:45.718Z,18.43
2018-02-10T05:46:14.772Z,19.03
2018-02-10T05:48:43.764Z,16.17
2018-02-10T05:51:13.819Z,15.80
2018-02-10T05:53:42.707Z,13.63
2018-02-10T05:56:11.769Z,15.20
2018-02-10T05:58:44.032Z,13.47
2018-02-10T06:01:14.044Z,15.23
2018-02-10T06:03:46.226Z,14.53
2018-02-10T06:06:15.251Z,13.40
2018-02-10T06:08:45.178Z,13.10
2018-02-10T06:11:15.882Z,12.80
2018-02-10T06:13:44.866Z,13.63
2018-02-10T06:16:13.862Z,13.67
2018-02-10T06:18:44.703Z,14.23
2018-02-10T06:21:13.690Z,13.10
2018-02-10T06:23:42.732Z,14.40
2018-02-10T06:26:11.820Z,16.33
2018-02-10T06:28:40.906Z,15.53
2018-02-10T06:31:10.924Z,14.20
2018-02-10T06:33:41.349Z,14.57
2018-02-10T06:36:10.352Z,15.60
2018-02-10T06:38:39.510Z,15.60
2018-02-10T06:41:09.530Z,16.73
2018-02-10T06:43:39.517Z,16.80
2018-02-10T06:46:09.917Z,17.87
2018-02-10T06:48:39.929Z,15.57
2018-02-10T06:51:09.037Z,16.00
2018-02-10T06:53:38.011Z,17.10
2018-02-10T06:56:07.273Z,22.13
2018-02-10T06:58:36.209Z,24.63
2018-02-10T07:01:05.958Z,23.93
2018-02-10T07:03:37.642Z,22.17
2018-02-10T07:06:06.734Z,18.50
2018-02-10T07:08:35.728Z,16.60
2018-02-10T07:11:08.513Z,14.07
2018-02-10T07:13:38.428Z,16.13
2018-02-10T07:16:07.427Z,16.07
2018-02-10T07:18:38.165Z,14.10
2018-02-10T07:21:07.098Z,15.83
2018-02-10T07:23:36.197Z,12.30
2018-02-10T07:26:08.621Z,11.07
2018-02-10T07:28:39.394Z,13.10
2018-02-10T07:31:08.446Z,13.00
2018-02-10T07:33:38.437Z,11.87
2018-02-10T07:36:07.470Z,13.20
2018-02-10T07:38:36.451Z,13.03
2018-02-10T07:41:06.276Z,11.90
2018-02-10T07:43:35.262Z,12.23
2018-02-10T07:46:04.456Z,11.77
2018-02-10T07:48:34.474Z,11.70
2018-02-10T07:51:04.425Z,12.77
2018-02-10T07:53:33.385Z,11.90
2018-02-10T07:56:02.616Z,12.70
2018-02-10T07:58:32.191Z,11.20
2018-02-10T08:01:01.302Z,12.13
2018-02-10T08:03:31.685Z,10.93
2018-02-10T08:06:01.605Z,11.10
2018-02-10T08:08:30.520Z,11.17
2018-02-10T08:11:03.238Z,13.60
2018-02-10T08:13:32.925Z,15.20
2018-02-10T08:16:01.912Z,12.10
2018-02-10T08:18:34.793Z,14.60
2018-02-10T08:21:03.853Z,13.43
2018-02-10T08:23:33.853Z,14.37
2018-02-10T08:26:07.245Z,13.00
2018-02-10T08:28:37.058Z,14.83
2018-02-10T08:31:06.110Z,13.97
2018-02-10T08:33:37.070Z,14.10
2018-02-10T08:36:07.649Z,12.30
2018-02-10T08:38:36.708Z,14.60
2018-02-10T08:41:07.448Z,13.30
2018-02-10T08:43:37.241Z,14.23
2018-02-10T08:46:07.384Z,13.80
2018-02-10T08:48:37.459Z,13.83
2018-02-10T08:51:07.490Z,13.10
2018-02-10T08:53:36.506Z,13.57
2018-02-10T08:56:05.617Z,17.20
2018-02-10T08:58:34.716Z,20.30
2018-02-10T09:01:04.424Z,14.30
2018-02-10T09:03:34.081Z,14.50
2018-02-10T09:06:04.746Z,14.60
2018-02-10T09:08:33.929Z,11.73
2018-02-10T09:11:03.117Z,14.27
2018-02-10T09:13:32.380Z,13.30
2018-02-10T09:16:01.410Z,12.60
2018-02-10T09:18:31.520Z,12.50
2018-02-10T09:21:00.632Z,11.70
2018-02-10T09:23:29.591Z,11.03
2018-02-10T09:26:00.401Z,13.27
2018-02-10T09:28:29.554Z,10.77
2018-02-10T09:30:58.754Z,10.47
2018-02-10T09:33:31.425Z,13.67
2018-02-10T09:36:01.963Z,12.10
2018-02-10T09:38:32.169Z,15.57
2018-02-10T09:41:01.181Z,16.70
2018-02-10T09:43:30.224Z,10.87
2018-02-10T09:46:00.051Z,10.53
2018-02-10T09:48:29.084Z,11.50
2018-02-10T09:50:58.980Z,10.00
2018-02-10T09:53:43.636Z,13.90
2018-02-10T09:56:14.521Z,11.43
2018-02-10T09:58:44.754Z,11.73
2018-02-10T10:01:14.739Z,13.60
2018-02-10T10:03:44.038Z,12.90
2018-02-10T10:06:13.738Z,13.50
2018-02-10T10:08:42.743Z,12.03
2018-02-10T10:11:12.642Z,15.63
2018-02-10T10:13:46.163Z,11.10
2018-02-10T10:16:18.177Z,13.80
2018-02-10T10:18:47.381Z,14.77
2018-02-10T10:21:17.035Z,13.50
2018-02-10T10:23:46.955Z,12.93
2018-02-10T10:26:16.865Z,13.27
2018-02-10T10:28:45.962Z,11.23
2018-02-10T10:31:15.465Z,12.80
2018-02-10T10:33:44.764Z,16.63
2018-02-10T10:36:14.731Z,13.73
2018-02-10T10:38:43.837Z,14.80
2018-02-10T10:41:14.103Z,13.17
2018-02-10T10:43:43.291Z,13.50
2018-02-10T10:46:12.346Z,11.90
2018-02-10T10:48:41.714Z,11.60
2018-02-10T10:51:10.873Z,15.33
2018-02-10T10:53:40.411Z,13.90
2018-02-10T10:56:09.444Z,14.27
2018-02-10T10:58:39.285Z,14.50
2018-02-10T11:01:08.512Z,13.17
2018-02-10T11:03:40.984Z,13.03
2018-02-10T11:06:10.899Z,14.00
2018-02-10T11:08:39.897Z,15.00
2018-02-10T11:11:09.718Z,15.00
2018-02-10T11:13:39.553Z,16.57
2018-02-10T11:16:09.666Z,18.30
2018-02-10T11:18:40.662Z,17.00
2018-02-10T11:21:10.295Z,14.23
2018-02-10T11:23:43.282Z,14.80
2018-02-10T11:26:12.277Z,14.20
2018-02-10T11:28:41.508Z,18.90
2018-02-10T11:31:10.657Z,14.57
2018-02-10T11:33:40.382Z,16.57
2018-02-10T11:36:12.087Z,15.53
2018-02-10T11:38:41.193Z,14.47
2018-02-10T11:41:10.436Z,14.60
2018-02-10T11:43:40.187Z,13.73
2018-02-10T11:46:09.138Z,14.57
2018-02-10T11:48:38.273Z,14.90
2018-02-10T11:51:10.168Z,12.83
2018-02-10T11:53:39.276Z,15.40
2018-02-10T11:56:09.177Z,16.00
2018-02-10T11:58:39.088Z,16.33
2018-02-10T12:01:08.191Z,15.70
2018-02-10T12:03:37.114Z,14.87
2018-02-10T12:06:07.746Z,14.90
2018-02-10T12:08:36.706Z,18.50
2018-02-10T12:11:07.783Z,15.10
2018-02-10T12:13:42.819Z,15.70
2018-02-10T12:16:11.841Z,15.63
2018-02-10T12:18:41.731Z,15.57
2018-02-10T12:21:11.628Z,16.73
2018-02-10T12:23:40.635Z,19.60
2018-02-10T12:26:09.835Z,26.90
2018-02-10T12:28:38.886Z,21.80
2018-02-10T12:31:08.128Z,52.53
2018-02-10T12:33:38.020Z,18.20
2018-02-10T12:36:08.847Z,23.50
2018-02-10T12:38:38.833Z,19.20
2018-02-10T12:41:08.017Z,18.30
2018-02-10T12:43:37.431Z,19.40
2018-02-10T12:46:07.661Z,17.47
2018-02-10T12:48:45.501Z,17.43
2018-02-10T12:51:14.931Z,18.17
2018-02-10T12:53:44.246Z,17.00
2018-02-10T12:56:15.008Z,16.83
2018-02-10T12:58:44.617Z,17.93
2018-02-10T13:01:14.221Z,17.17
2018-02-10T13:03:44.445Z,16.80
2018-02-10T13:06:13.952Z,18.30
2018-02-10T13:08:43.302Z,17.97
2018-02-10T13:11:13.071Z,20.33
2018-02-10T13:13:42.365Z,17.80
2018-02-10T13:16:11.724Z,19.83
2018-02-10T13:18:41.812Z,18.37
2018-02-10T13:21:10.978Z,17.47
2018-02-10T13:23:40.096Z,16.77
2018-02-10T13:26:10.827Z,15.27
2018-02-10T13:28:40.119Z,16.40
2018-02-10T13:31:09.181Z,16.07
2018-02-10T13:33:40.934Z,15.97
2018-02-10T13:36:10.958Z,19.70
2018-02-10T13:38:40.080Z,17.80
2018-02-10T13:41:09.395Z,14.40
2018-02-10T13:43:38.544Z,14.83
2018-02-10T13:46:07.848Z,15.80
2018-02-10T13:48:42.883Z,16.57
2018-02-10T13:51:13.283Z,13.87
2018-02-10T13:53:43.539Z,17.53
2018-02-10T13:56:12.885Z,18.10
2018-02-10T13:58:42.770Z,18.33
2018-02-10T14:01:11.878Z,18.10
2018-02-10T14:03:41.142Z,18.93
2018-02-10T14:06:11.057Z,18.53
2018-02-10T14:08:40.318Z,20.17
2018-02-10T14:11:09.356Z,21.80
2018-02-10T14:13:39.388Z,21.83
2018-02-10T14:16:08.740Z,18.63
2018-02-10T14:18:38.081Z,18.17
2018-02-10T14:21:07.887Z,18.13
2018-02-10T14:23:37.438Z,19.40
2018-02-10T14:26:06.580Z,18.70
2018-02-10T14:28:35.746Z,18.30
2018-02-10T14:31:06.736Z,16.73
2018-02-10T14:33:36.803Z,16.50
2018-02-10T14:36:07.740Z,17.13
2018-02-10T14:38:36.997Z,18.17
2018-02-10T14:41:06.095Z,18.30
2018-02-10T14:43:36.106Z,19.20
2018-02-10T14:46:07.475Z,21.00
2018-02-10T14:48:36.758Z,18.80
2018-02-10T14:51:06.005Z,22.90
2018-02-10T14:53:35.984Z,20.90
2018-02-10T14:56:06.070Z,18.57
2018-02-10T14:58:35.310Z,17.00
2018-02-10T15:01:05.168Z,14.87
2018-02-10T15:03:34.867Z,18.17
2018-02-10T15:06:05.677Z,17.43
2018-02-10T15:08:34.905Z,17.93
2018-02-10T15:11:05.693Z,16.37
2018-02-10T15:13:35.131Z,15.23
2018-02-10T15:16:04.448Z,17.90
2018-02-10T15:18:34.904Z,15.97
2018-02-10T15:21:04.081Z,17.97
2018-02-10T15:23:34.478Z,19.00
2018-02-10T15:26:03.794Z,16.20
2018-02-10T15:28:33.258Z,16.80
2018-02-10T15:31:14.241Z,14.87
2018-02-10T15:33:54.690Z,14.37
2018-02-10T15:36:23.953Z,16.47
2018-02-10T15:38:54.064Z,16.53
2018-02-10T15:41:23.365Z,16.03
2018-02-10T15:43:54.864Z,17.83
2018-02-10T15:46:24.429Z,15.90
2018-02-10T15:48:54.135Z,17.13
2018-02-10T15:51:24.873Z,17.60
2018-02-10T15:53:54.064Z,15.50
2018-02-10T15:56:23.592Z,16.50
2018-02-10T15:58:53.355Z,16.00
2018-02-10T16:01:22.917Z,17.17
2018-02-10T16:03:52.570Z,18.03
2018-02-10T16:06:22.214Z,14.73
2018-02-10T16:08:51.879Z,16.27
2018-02-10T16:11:21.079Z,19.07
2018-02-10T16:13:52.565Z,18.97
2018-02-10T16:16:22.165Z,18.47
2018-02-10T16:18:51.706Z,19.83
2018-02-10T16:21:21.383Z,14.57
2018-02-10T16:23:50.649Z,16.30
2018-02-10T16:26:21.466Z,15.90
2018-02-10T16:28:51.776Z,17.10
2018-02-10T16:31:21.358Z,16.20
2018-02-10T16:33:50.830Z,14.57
2018-02-10T16:36:21.862Z,16.20
2018-02-10T16:38:51.615Z,15.40
2018-02-10T16:41:22.057Z,14.20
2018-02-10T16:43:54.043Z,16.87
2018-02-10T16:46:23.006Z,16.93
2018-02-10T16:48:52.290Z,16.50
2018-02-10T16:51:21.657Z,16.47
2018-02-10T16:53:50.917Z,15.30
2018-02-10T16:56:20.172Z,15.67
2018-02-10T16:58:50.818Z,15.20
2018-02-10T17:01:20.945Z,16.57
2018-02-10T17:03:50.434Z,15.80
2018-02-10T17:06:21.801Z,16.40
2018-02-10T17:08:51.433Z,18.80
2018-02-10T17:11:20.682Z,16.73
2018-02-10T17:13:50.045Z,15.60
2018-02-10T17:16:20.145Z,18.50
2018-02-10T17:18:50.005Z,15.83
2018-02-10T17:21:20.490Z,17.40
2018-02-10T17:23:49.842Z,16.17
2018-02-10T17:26:20.106Z,16.40
2018-02-10T17:28:54.953Z,17.90
2018-02-10T17:31:25.279Z,16.30
2018-02-10T17:33:54.650Z,15.87
2018-02-10T17:36:23.897Z,16.47
2018-02-10T17:38:53.124Z,16.33
2018-02-10T17:41:22.805Z,16.40
2018-02-10T17:43:54.633Z,15.10
2018-02-10T17:46:24.647Z,15.90
2018-02-10T17:48:53.815Z,16.43
2018-02-10T17:51:23.101Z,14.80
2018-02-10T17:53:52.471Z,21.20
2018-02-10T17:56:22.577Z,16.87
2018-02-10T17:58:53.788Z,16.90
2018-02-10T18:01:22.805Z,17.50
2018-02-10T18:03:52.085Z,15.20
2018-02-10T18:06:21.073Z,15.60
2018-02-10T18:08:50.615Z,16.50
2018-02-10T18:11:20.203Z,15.00
2018-02-10T18:13:54.971Z,14.83
2018-02-10T18:16:24.156Z,16.40
2018-02-10T18:18:53.580Z,15.13
2018-02-10T18:21:24.565Z,15.57
2018-02-10T18:23:53.858Z,16.10
2018-02-10T18:26:28.949Z,17.03
2018-02-10T18:28:58.202Z,15.83
2018-02-10T18:31:27.296Z,16.00
2018-02-10T18:33:58.283Z,15.40
2018-02-10T18:36:27.570Z,15.20
2018-02-10T18:38:56.981Z,17.33
2018-02-10T18:41:27.757Z,16.77
2018-02-10T18:43:56.768Z,15.67
2018-02-10T18:46:26.006Z,16.30
2018-02-10T18:48:58.555Z,18.30
2018-02-10T18:51:27.746Z,16.90
2018-02-10T18:53:56.676Z,15.90
2018-02-10T18:56:29.384Z,16.97
2018-02-10T18:58:58.618Z,15.40
2018-02-10T19:01:28.751Z,14.17
2018-02-10T19:03:58.096Z,13.60
2018-02-10T19:06:27.445Z,15.40
2018-02-10T19:08:56.742Z,13.07
2018-02-10T19:11:25.880Z,14.97
2018-02-10T19:13:55.086Z,12.77
2018-02-10T19:16:24.397Z,12.73
2018-02-10T19:18:53.785Z,14.37
2018-02-10T19:21:23.295Z,14.00
2018-02-10T19:23:52.549Z,15.07
2018-02-10T19:26:24.000Z,13.67
2018-02-10T19:28:53.196Z,13.20
2018-02-10T19:31:22.276Z,14.63
2018-02-10T19:33:52.227Z,15.67
2018-02-10T19:36:21.409Z,13.07
2018-02-10T19:38:50.597Z,13.27
2018-02-10T19:41:20.735Z,13.57
2018-02-10T19:43:49.724Z,14.23
2018-02-10T19:46:19.058Z,14.53
2018-02-10T19:48:49.021Z,14.23
2018-02-10T19:51:18.093Z,14.27
2018-02-10T19:53:47.105Z,13.23
2018-02-10T19:56:17.859Z,13.17
2018-02-10T19:58:47.274Z,13.33
2018-02-10T20:01:16.314Z,13.57
2018-02-10T20:03:50.579Z,14.13
2018-02-10T20:06:20.321Z,14.00
2018-02-10T20:08:49.485Z,13.90
2018-02-10T20:11:21.766Z,12.60
2018-02-10T20:13:51.013Z,12.87
2018-02-10T20:16:20.160Z,12.33
2018-02-10T20:18:50.212Z,13.50
2018-02-10T20:21:20.842Z,13.30
2018-02-10T20:23:50.006Z,12.50
2018-02-10T20:28:55.161Z,8.80
2018-02-10T20:31:25.190Z,14.60
2018-02-10T20:33:54.731Z,13.10
2018-02-10T20:36:23.784Z,13.67
2018-02-10T20:38:53.819Z,13.03
2018-02-10T20:41:23.202Z,13.93
2018-02-10T20:43:52.854Z,13.10
2018-02-10T20:46:22.525Z,15.57
2018-02-10T20:48:53.328Z,14.77
2018-02-10T20:51:22.494Z,12.10
2018-02-10T20:53:52.382Z,12.90
2018-02-10T20:56:24.977Z,13.50
2018-02-10T20:58:54.917Z,12.50
2018-02-10T21:01:23.964Z,9.40
2018-02-10T21:03:56.661Z,12.07
2018-02-10T21:06:26.575Z,13.70
2018-02-10T21:08:55.701Z,12.43
2018-02-10T21:11:27.378Z,11.93
2018-02-10T21:13:56.403Z,12.73
2018-02-10T21:16:25.623Z,12.90
2018-02-10T21:18:56.634Z,13.30
2018-02-10T21:21:26.871Z,12.00
2018-02-10T21:23:56.816Z,11.00
2018-02-10T21:26:31.203Z,12.80
2018-02-10T21:29:00.840Z,12.40
2018-02-10T21:31:30.223Z,12.63
2018-02-10T21:34:01.941Z,12.17
2018-02-10T21:36:31.876Z,12.70
2018-02-10T21:39:01.806Z,11.97
2018-02-10T21:41:30.958Z,11.73
2018-02-10T21:44:00.196Z,13.93
2018-02-10T21:46:29.259Z,14.67
2018-02-10T21:49:00.195Z,10.93
2018-02-10T21:51:30.211Z,13.00
2018-02-10T21:54:00.216Z,12.10
2018-02-10T21:56:29.615Z,11.17
2018-02-10T21:58:59.575Z,13.90
2018-02-10T22:01:28.718Z,13.17
2018-02-10T22:03:59.571Z,11.07
2018-02-10T22:06:28.782Z,10.40
2018-02-10T22:08:57.930Z,11.67
2018-02-10T22:11:28.050Z,11.47
2018-02-10T22:13:57.301Z,10.00
2018-02-10T22:16:27.257Z,11.40
2018-02-10T22:18:58.572Z,10.50
2018-02-10T22:21:27.813Z,10.90
2018-02-10T22:23:57.274Z,11.07
2018-02-10T22:26:27.217Z,10.53
2018-02-10T22:28:56.663Z,11.00
2018-02-10T22:31:26.764Z,10.67
2018-02-10T22:33:58.408Z,11.27
2018-02-10T22:36:27.807Z,10.37
2018-02-10T22:38:58.067Z,13.43
2018-02-10T22:41:28.564Z,10.13
2018-02-10T22:43:58.126Z,11.73
2018-02-10T22:46:27.412Z,14.00
2018-02-10T22:48:56.994Z,12.70
2018-02-10T22:51:26.390Z,13.90
2018-02-10T22:53:55.940Z,15.10
2018-02-10T22:56:27.462Z,15.03
2018-02-10T22:58:57.573Z,15.50
2018-02-10T23:01:27.263Z,16.92
2018-02-10T23:03:58.283Z,16.03
2018-02-10T23:06:27.902Z,16.00
2018-02-10T23:08:57.317Z,15.57
2018-02-10T23:11:31.142Z,17.60
2018-02-10T23:14:00.484Z,18.63
2018-02-10T23:16:29.533Z,17.40
2018-02-10T23:19:00.418Z,17.27
2018-02-10T23:21:29.574Z,16.23
2018-02-10T23:23:58.805Z,17.17
2018-02-10T23:26:30.189Z,20.60
2018-02-10T23:28:59.929Z,17.77
2018-02-10T23:31:28.915Z,18.25
2018-02-10T23:33:58.301Z,18.40
2018-02-10T23:36:27.603Z,18.50
2018-02-10T23:38:57.241Z,17.30
2018-02-10T23:41:29.056Z,17.33
2018-02-10T23:43:58.295Z,15.25
2018-02-10T23:46:27.590Z,16.65
2018-02-10T23:48:56.792Z,14.05
2018-02-10T23:51:26.143Z,14.07
2018-02-10T23:53:55.179Z,12.15
2018-02-10T23:56:25.168Z,12.90
2018-02-10T23:58:54.198Z,12.30
